Terminal Aerodrome Forecast
Issued by NWS

Home | Current Version | Previous Version | Text Only | Print | Product List | Glossary On
Versions: 1 2 3 4 5 6 7 8 9 10 11 12 13
000
FTUS41 KPBZ 050237 AAA
TAFMGW
TAF AMD
KMGW 050237Z 0503/0524 VRB02KT P6SM BKN100
     FM050400 20004KT P6SM VCSH BKN070
     FM051400 22006KT 5SM -SHRA BR OVC035=

USA.gov is the U.S. government's official web portal to all federal, state and local government web resources and services.